Time;durP1;ratioP1;P1;durP2;ratioP2;P2;SDS_P1;SDS_P2;PMS_P1;PMS_P2;Temp;Humidity;BMP_temperature;BMP_pressure;BME280_temperature;BME280_humidity;BME280_pressure;Samples;Min_cycle;Max_cycle;Signal;HPM_P1;HPM_P2
2021/06/12 00:01:41;;;;;;;4.70;4.15;;;18.00;65.60;;;;;;5051505;28;20044;-84
2021/06/12 00:04:08;;;;;;;5.45;4.63;;;18.00;65.70;;;;;;5038179;28;20033;-82
2021/06/12 00:06:34;;;;;;;5.68;4.97;;;18.00;65.80;;;;;;5030375;28;20057;-83
2021/06/12 00:09:00;;;;;;;6.03;4.97;;;17.90;65.80;;;;;;5057639;28;20117;-91
2021/06/12 00:11:26;;;;;;;5.75;4.70;;;17.90;65.80;;;;;;5070018;28;20373;-85
2021/06/12 00:13:52;;;;;;;5.32;4.82;;;17.90;65.80;;;;;;5047885;28;20051;-82
2021/06/12 00:16:19;;;;;;;6.93;5.63;;;17.80;65.70;;;;;;5046853;28;20040;-83
2021/06/12 00:18:46;;;;;;;5.28;4.78;;;17.80;65.80;;;;;;5047036;28;20029;-84
2021/06/12 00:21:12;;;;;;;7.45;4.63;;;17.80;65.80;;;;;;5067884;28;20036;-82
2021/06/12 00:23:38;;;;;;;6.57;5.20;;;17.70;65.70;;;;;;5049969;28;20395;-86
2021/06/12 00:26:04;;;;;;;5.80;5.20;;;17.70;65.80;;;;;;5051286;28;20052;-90
2021/06/12 00:28:30;;;;;;;5.72;5.00;;;17.70;65.80;;;;;;5068349;28;20119;-88
2021/06/12 00:30:56;;;;;;;6.25;5.60;;;17.70;65.80;;;;;;5068177;28;20135;-84
2021/06/12 00:33:22;;;;;;;5.68;5.13;;;17.60;65.70;;;;;;5067919;28;20519;-84
2021/06/12 00:35:48;;;;;;;7.97;5.60;;;17.60;65.80;;;;;;5033534;28;20029;-83
2021/06/12 00:38:14;;;;;;;6.85;5.65;;;17.60;65.80;;;;;;5068440;28;20082;-85
2021/06/12 00:40:40;;;;;;;7.07;6.13;;;17.60;65.80;;;;;;5068403;28;20458;-83
2021/06/12 00:43:06;;;;;;;6.85;6.18;;;17.50;65.70;;;;;;5068498;28;20032;-86
2021/06/12 00:45:33;;;;;;;7.00;5.95;;;17.50;65.70;;;;;;5069144;28;20067;-88
2021/06/12 00:48:01;;;;;;;6.70;5.47;;;17.50;65.80;;;;;;5068744;28;20047;-92
2021/06/12 00:50:31;;;;;;;6.80;5.88;;;17.50;65.80;;;;;;5072432;28;20039;-84
2021/06/12 00:52:58;;;;;;;7.28;5.57;;;17.40;65.80;;;;;;5055250;28;20045;-91
2021/06/12 00:55:25;;;;;;;6.78;6.07;;;17.40;65.80;;;;;;5070607;28;20551;-89
2021/06/12 00:57:51;;;;;;;10.23;6.03;;;17.40;65.80;;;;;;5053648;28;20032;-86
2021/06/12 01:00:20;;;;;;;7.40;5.32;;;17.30;65.70;;;;;;5071579;28;20032;-86
2021/06/12 01:02:47;;;;;;;7.13;5.30;;;17.30;65.80;;;;;;5053066;28;20044;-90
2021/06/12 01:05:16;;;;;;;6.43;5.82;;;17.30;65.80;;;;;;5068792;28;20020;-89
2021/06/12 01:07:42;;;;;;;8.52;6.05;;;17.30;65.90;;;;;;5051788;28;20024;-83
2021/06/12 01:10:11;;;;;;;6.63;5.53;;;17.20;65.80;;;;;;5052297;28;20040;-87
2021/06/12 01:12:56;;;;;;;8.63;6.97;;;17.30;66.10;;;;;;5053542;28;20158;-88
2021/06/12 01:15:26;;;;;;;9.13;6.03;;;17.20;66.00;;;;;;5050748;28;20047;-91
2021/06/12 01:18:02;;;;;;;9.13;6.22;;;17.20;66.00;;;;;;5051135;28;20029;-86
2021/06/12 01:21:02;;;;;;;11.02;6.70;;;17.10;65.90;;;;;;5067026;28;20028;-82
2021/06/12 01:24:01;;;;;;;7.95;6.40;;;17.10;65.90;;;;;;5067768;28;20094;-82
2021/06/12 01:26:49;;;;;;;10.15;6.68;;;17.10;66.00;;;;;;5068560;28;20032;-82
2021/06/12 01:29:21;;;;;;;11.38;7.13;;;17.10;66.00;;;;;;5069611;28;20041;-86
2021/06/12 01:31:49;;;;;;;9.30;7.13;;;17.00;65.80;;;;;;5058600;28;20544;-88
2021/06/12 01:34:16;;;;;;;8.27;6.80;;;17.00;65.80;;;;;;5054399;28;20025;-90
2021/06/12 01:36:43;;;;;;;9.93;7.05;;;16.90;65.70;;;;;;5053475;28;20031;-88
2021/06/12 01:39:09;;;;;;;9.65;7.43;;;16.90;65.80;;;;;;5058592;28;20082;-87
2021/06/12 01:41:37;;;;;;;8.70;6.85;;;16.90;65.80;;;;;;5074388;28;20028;-91
2021/06/12 01:44:04;;;;;;;8.35;7.47;;;16.90;65.90;;;;;;5055155;28;20195;-90
2021/06/12 01:46:30;;;;;;;9.05;7.15;;;16.80;65.70;;;;;;5082017;28;20500;-82
2021/06/12 01:48:58;;;;;;;14.45;8.40;;;16.80;65.80;;;;;;5096209;28;20039;-88
2021/06/12 01:51:25;;;;;;;8.05;7.20;;;16.80;65.80;;;;;;5096343;28;20036;-89
2021/06/12 01:53:56;;;;;;;8.95;7.32;;;16.80;65.80;;;;;;5096204;28;20459;-88
2021/06/12 01:56:25;;;;;;;8.25;7.43;;;16.70;65.70;;;;;;5077688;28;20051;-88
2021/06/12 01:58:52;;;;;;;10.27;7.72;;;16.70;65.80;;;;;;5095895;28;20024;-89
2021/06/12 02:01:21;;;;;;;7.82;6.90;;;16.70;65.80;;;;;;5096033;28;20671;-90
2021/06/12 02:03:48;;;;;;;11.20;8.27;;;16.70;65.90;;;;;;5095793;28;20028;-83
2021/06/12 02:06:16;;;;;;;8.30;7.50;;;16.70;65.90;;;;;;5096179;28;20032;-86
2021/06/12 02:08:47;;;;;;;7.55;6.45;;;16.60;65.80;;;;;;5095991;28;20137;-86
2021/06/12 02:11:16;;;;;;;8.25;7.43;;;16.60;66.00;;;;;;5061013;28;20036;-86
2021/06/12 02:13:42;;;;;;;7.97;7.18;;;16.60;66.00;;;;;;5095437;28;20060;-84
2021/06/12 02:16:10;;;;;;;8.38;7.47;;;16.50;65.90;;;;;;5095508;28;20035;-89
2021/06/12 02:18:37;;;;;;;8.75;7.50;;;16.50;65.90;;;;;;5077902;28;20119;-82
2021/06/12 02:21:04;;;;;;;9.10;7.82;;;16.40;65.80;;;;;;5075655;28;20639;-87
2021/06/12 02:23:30;;;;;;;10.05;8.02;;;16.40;65.90;;;;;;5075460;28;20032;-83
2021/06/12 02:25:57;;;;;;;8.45;7.50;;;16.40;65.90;;;;;;5075255;28;20036;-88
2021/06/12 02:28:29;;;;;;;8.93;8.02;;;16.40;66.00;;;;;;5075990;28;20021;-87
2021/06/12 02:31:01;;;;;;;10.48;7.97;;;16.30;65.90;;;;;;5073605;28;20637;-90
2021/06/12 02:33:28;;;;;;;15.00;8.93;;;16.30;65.90;;;;;;5075269;28;20495;-90
2021/06/12 02:35:54;;;;;;;9.35;8.35;;;16.30;65.90;;;;;;5074905;28;20034;-91
2021/06/12 02:38:21;;;;;;;10.23;8.23;;;16.20;65.80;;;;;;5075090;28;20084;-86
2021/06/12 02:40:47;;;;;;;9.20;8.15;;;16.20;65.90;;;;;;5075217;28;20532;-91
2021/06/12 02:43:13;;;;;;;9.27;8.23;;;16.20;65.90;;;;;;5075361;28;20024;-89
2021/06/12 02:45:41;;;;;;;10.02;8.48;;;16.10;65.80;;;;;;5074577;28;20028;-89
2021/06/12 02:48:13;;;;;;;9.02;7.47;;;16.10;65.80;;;;;;5057707;28;20047;-89
2021/06/12 02:50:42;;;;;;;10.93;8.70;;;16.10;65.90;;;;;;5075554;28;20033;-89
2021/06/12 02:53:10;;;;;;;9.43;8.43;;;16.10;65.90;;;;;;5075451;28;20037;-90
2021/06/12 02:55:39;;;;;;;10.38;9.38;;;16.10;65.90;;;;;;5075633;28;20024;-86
2021/06/12 02:58:06;;;;;;;11.02;8.80;;;16.00;65.80;;;;;;5075016;28;20036;-81
2021/06/12 03:00:35;;;;;;;10.57;8.38;;;16.00;65.80;;;;;;5074613;28;20039;-83
2021/06/12 03:03:02;;;;;;;10.05;8.95;;;16.00;65.80;;;;;;5074504;28;20029;-81
2021/06/12 03:05:30;;;;;;;11.65;9.02;;;15.90;65.70;;;;;;5057106;28;20058;-88
2021/06/12 03:07:58;;;;;;;11.00;8.35;;;16.00;65.90;;;;;;5072002;28;20515;-81
2021/06/12 03:10:27;;;;;;;9.57;8.57;;;15.90;65.70;;;;;;5073729;28;20111;-81
2021/06/12 03:12:55;;;;;;;10.30;8.65;;;15.90;65.80;;;;;;5073313;28;20495;-85
2021/06/12 03:15:22;;;;;;;12.45;9.63;;;15.90;65.90;;;;;;5074448;28;20081;-87
2021/06/12 03:17:50;;;;;;;9.68;8.70;;;15.80;65.70;;;;;;5074496;28;20064;-91
2021/06/12 03:20:18;;;;;;;12.43;9.50;;;15.80;65.80;;;;;;5074609;28;20028;-87
2021/06/12 03:22:47;;;;;;;10.48;8.95;;;15.80;65.80;;;;;;5073942;28;20036;-83
2021/06/12 03:25:15;;;;;;;10.30;9.23;;;15.70;65.70;;;;;;5056905;28;20021;-88
2021/06/12 03:27:41;;;;;;;9.48;8.52;;;15.70;65.70;;;;;;5075130;28;20035;-86
2021/06/12 03:30:08;;;;;;;10.27;9.05;;;15.70;65.80;;;;;;5056299;28;20036;-84
2021/06/12 03:32:35;;;;;;;11.07;9.05;;;15.70;65.80;;;;;;5074469;28;20040;-89
2021/06/12 03:35:03;;;;;;;10.43;9.32;;;15.70;65.90;;;;;;5073969;28;20036;-86
2021/06/12 03:37:31;;;;;;;11.70;9.80;;;15.60;65.70;;;;;;5056958;28;20028;-81
2021/06/12 03:39:57;;;;;;;11.77;10.20;;;15.60;65.80;;;;;;5056056;28;20097;-84
2021/06/12 03:42:24;;;;;;;10.95;9.38;;;15.60;65.80;;;;;;5074222;28;20036;-81
2021/06/12 03:44:51;;;;;;;10.77;9.55;;;15.60;65.90;;;;;;5073723;28;20020;-81
2021/06/12 03:47:18;;;;;;;11.75;10.27;;;15.50;65.70;;;;;;5072936;28;20131;-83
2021/06/12 03:49:45;;;;;;;11.70;10.60;;;15.50;65.70;;;;;;5056526;28;20028;-87
2021/06/12 03:52:11;;;;;;;11.50;10.40;;;15.50;65.80;;;;;;5072756;28;20056;-84
2021/06/12 03:54:38;;;;;;;11.85;10.65;;;15.50;65.80;;;;;;5072983;28;20384;-90
2021/06/12 03:57:05;;;;;;;13.23;10.88;;;15.50;65.80;;;;;;5073843;28;20035;-84
2021/06/12 03:59:31;;;;;;;11.02;9.95;;;15.40;65.70;;;;;;5054935;28;20131;-87
2021/06/12 04:01:59;;;;;;;11.63;10.48;;;15.40;65.70;;;;;;5074073;28;20480;-85
2021/06/12 04:04:26;;;;;;;10.98;9.82;;;15.40;65.70;;;;;;5072979;28;20146;-81
2021/06/12 04:06:52;;;;;;;11.38;10.18;;;15.30;65.60;;;;;;5074086;28;20526;-89
2021/06/12 04:09:18;;;;;;;12.48;10.63;;;15.40;65.80;;;;;;5072282;28;20055;-84
2021/06/12 04:11:44;;;;;;;11.45;10.15;;;15.40;65.80;;;;;;5073282;28;20475;-84
2021/06/12 04:14:10;;;;;;;12.30;11.00;;;15.30;65.70;;;;;;5073075;28;20060;-86
2021/06/12 04:16:37;;;;;;;12.57;11.07;;;15.30;65.70;;;;;;5073496;28;20126;-91
2021/06/12 04:19:04;;;;;;;11.45;10.25;;;15.30;65.70;;;;;;5073959;28;20051;-86
2021/06/12 04:21:30;;;;;;;11.40;10.15;;;15.30;65.80;;;;;;5072986;28;20103;-82
2021/06/12 04:23:56;;;;;;;11.77;10.57;;;15.20;65.60;;;;;;5073619;28;20083;-81
2021/06/12 04:26:22;;;;;;;12.07;10.68;;;15.30;65.80;;;;;;5073654;28;20492;-90
2021/06/12 04:28:48;;;;;;;11.70;10.50;;;15.20;65.70;;;;;;5056126;28;20032;-86
2021/06/12 04:31:14;;;;;;;13.18;10.82;;;15.20;65.70;;;;;;5073552;28;20029;-89
2021/06/12 04:33:40;;;;;;;11.93;10.73;;;15.20;65.70;;;;;;5073142;28;20036;-81
2021/06/12 04:36:06;;;;;;;14.75;11.18;;;15.20;65.70;;;;;;5055928;28;20037;-89
2021/06/12 04:38:32;;;;;;;11.02;10.00;;;15.20;65.70;;;;;;5073687;28;20116;-88
2021/06/12 04:40:58;;;;;;;11.80;10.40;;;15.20;65.70;;;;;;5055841;28;20075;-83
2021/06/12 04:43:24;;;;;;;12.95;11.25;;;15.20;65.70;;;;;;5074186;28;20073;-86
2021/06/12 04:45:50;;;;;;;13.77;11.02;;;15.20;65.70;;;;;;5053783;28;20078;-82
2021/06/12 04:48:17;;;;;;;16.05;11.27;;;15.20;65.70;;;;;;5044467;28;20053;-91
2021/06/12 04:50:43;;;;;;;13.82;11.57;;;15.20;66.20;;;;;;5033394;28;20086;-90
2021/06/12 04:53:11;;;;;;;12.50;11.10;;;15.20;65.70;;;;;;5051505;28;20127;-90
2021/06/12 04:55:38;;;;;;;12.98;10.88;;;15.20;65.70;;;;;;5033084;28;20025;-92
2021/06/12 04:58:04;;;;;;;14.15;10.43;;;15.20;65.70;;;;;;5057847;28;20479;-90
2021/06/12 05:00:30;;;;;;;13.00;11.65;;;15.20;66.20;;;;;;5053100;28;20048;-87
2021/06/12 05:02:57;;;;;;;14.60;10.73;;;15.30;65.80;;;;;;5062685;28;20033;-90
2021/06/12 05:05:23;;;;;;;11.73;10.63;;;15.30;66.40;;;;;;5036745;28;20395;-88
2021/06/12 05:07:49;;;;;;;12.25;10.50;;;15.30;65.80;;;;;;5066223;28;20540;-90
2021/06/12 05:10:15;;;;;;;11.50;10.32;;;15.30;65.80;;;;;;5073764;28;20112;-87
2021/06/12 05:12:41;;;;;;;12.27;9.88;;;15.30;65.80;;;;;;5073876;28;20048;-81
2021/06/12 05:15:09;;;;;;;11.02;9.65;;;15.40;66.00;;;;;;5055501;28;20028;-91
2021/06/12 05:17:36;;;;;;;10.35;9.40;;;15.40;65.90;;;;;;5056590;28;20423;-81
2021/06/12 05:20:04;;;;;;;11.60;10.35;;;15.40;65.90;;;;;;5073188;28;20043;-88
2021/06/12 05:22:29;;;;;;;13.38;9.88;;;15.50;66.00;;;;;;5057862;28;20036;-90
2021/06/12 05:24:57;;;;;;;12.07;10.02;;;15.50;65.90;;;;;;5062423;28;20035;-90
2021/06/12 05:27:24;;;;;;;11.50;10.32;;;15.50;65.90;;;;;;5076530;28;20115;-87
2021/06/12 05:29:51;;;;;;;12.05;10.48;;;15.60;66.10;;;;;;5076845;28;20029;-89
2021/06/12 05:32:17;;;;;;;10.43;9.52;;;15.60;66.00;;;;;;5075572;28;20036;-89
2021/06/12 05:34:43;;;;;;;10.35;9.32;;;15.60;66.00;;;;;;5076349;28;20035;-89
2021/06/12 05:37:10;;;;;;;11.45;9.32;;;15.70;66.10;;;;;;5073076;28;20117;-87
2021/06/12 05:39:37;;;;;;;11.55;10.43;;;15.70;66.10;;;;;;5055936;28;20032;-91
2021/06/12 05:42:03;;;;;;;12.30;10.32;;;15.80;66.30;;;;;;5073331;28;20119;-89
2021/06/12 05:44:29;;;;;;;10.63;9.52;;;15.80;66.20;;;;;;5070872;28;20021;-85
2021/06/12 05:46:55;;;;;;;10.38;9.32;;;15.90;66.40;;;;;;5071476;28;20141;-87
2021/06/12 05:49:22;;;;;;;10.50;9.60;;;16.00;66.50;;;;;;5040290;28;20116;-86
2021/06/12 05:51:48;;;;;;;11.70;10.45;;;16.00;66.50;;;;;;5055157;28;20040;-84
2021/06/12 05:54:15;;;;;;;11.55;10.15;;;16.10;66.60;;;;;;5073943;28;20055;-87
2021/06/12 05:56:41;;;;;;;12.65;9.50;;;16.20;66.70;;;;;;5056313;28;20053;-92
2021/06/12 05:59:07;;;;;;;10.73;9.63;;;16.30;66.80;;;;;;5073419;28;20056;-93
2021/06/12 06:01:34;;;;;;;12.07;10.02;;;16.40;66.90;;;;;;5073694;28;20496;-90
2021/06/12 06:04:00;;;;;;;11.00;9.63;;;16.50;67.10;;;;;;5073918;28;20124;-88
2021/06/12 06:06:26;;;;;;;11.20;8.50;;;16.60;67.20;;;;;;5073397;28;20020;-85
2021/06/12 06:08:52;;;;;;;12.32;9.02;;;16.70;67.30;;;;;;5071721;28;20037;-86
2021/06/12 06:11:18;;;;;;;10.45;9.40;;;16.80;67.40;;;;;;5052466;28;20031;-89
2021/06/12 06:13:45;;;;;;;11.50;8.68;;;17.00;67.70;;;;;;5072395;28;20036;-85
2021/06/12 06:16:12;;;;;;;9.15;8.25;;;17.00;67.70;;;;;;5053958;28;20062;-86
2021/06/12 06:18:40;;;;;;;10.70;9.20;;;17.20;68.00;;;;;;5045855;28;20056;-91
2021/06/12 06:21:07;;;;;;;9.93;8.93;;;17.30;68.10;;;;;;5052160;28;20044;-87
2021/06/12 06:23:36;;;;;;;9.30;8.40;;;17.50;68.30;;;;;;5045555;28;20115;-88
2021/06/12 06:26:03;;;;;;;15.00;10.35;;;17.70;68.60;;;;;;5037441;28;20094;-89
2021/06/12 06:28:28;;;;;;;16.52;9.57;;;17.90;69.00;;;;;;5034360;28;20025;-91
2021/06/12 06:30:55;;;;;;;10.73;9.27;;;18.00;69.10;;;;;;5052793;28;20028;-89
2021/06/12 06:33:23;;;;;;;17.00;9.68;;;18.20;69.60;;;;;;5047073;28;20526;-86
2021/06/12 06:35:50;;;;;;;12.90;9.77;;;18.40;69.70;;;;;;5053886;28;20032;-87
2021/06/12 06:38:16;;;;;;;12.00;9.73;;;18.60;69.70;;;;;;5053453;28;20039;-88
2021/06/12 06:40:42;;;;;;;14.15;10.00;;;18.80;69.70;;;;;;5052898;28;20115;-86
2021/06/12 06:43:11;;;;;;;14.52;9.35;;;19.00;69.60;;;;;;5051303;28;20143;-88
2021/06/12 06:45:38;;;;;;;17.38;9.50;;;19.20;69.40;;;;;;5056394;28;20252;-88
2021/06/12 06:48:05;;;;;;;15.85;10.32;;;19.30;69.00;;;;;;5048377;28;20061;-87
2021/06/12 06:50:31;;;;;;;17.10;10.07;;;19.60;69.10;;;;;;5053317;28;20426;-87
2021/06/12 06:52:59;;;;;;;21.40;11.50;;;19.80;68.90;;;;;;5069696;28;20490;-88
2021/06/12 06:55:26;;;;;;;14.27;9.88;;;20.00;68.50;;;;;;5049244;28;20033;-91
2021/06/12 06:57:53;;;;;;;17.05;10.80;;;20.20;68.00;;;;;;5021796;28;20247;-89
2021/06/12 07:00:22;;;;;;;16.75;11.82;;;20.20;67.40;;;;;;5053397;28;20024;-93
2021/06/12 07:02:49;;;;;;;20.58;13.73;;;20.40;67.40;;;;;;5039638;28;20542;-90
2021/06/12 07:05:15;;;;;;;23.13;15.63;;;20.50;67.10;;;;;;5054438;28;20021;-90
2021/06/12 07:07:41;;;;;;;23.52;15.43;;;20.70;67.00;;;;;;5054071;28;20032;-93
2021/06/12 07:10:08;;;;;;;28.13;17.75;;;20.80;66.60;;;;;;5039292;28;20059;-91
2021/06/12 07:12:34;;;;;;;22.02;16.95;;;21.00;66.70;;;;;;5073257;28;20040;-90
2021/06/12 07:15:00;;;;;;;24.35;17.90;;;21.20;66.60;;;;;;5054814;28;20476;-89
2021/06/12 07:17:26;;;;;;;25.27;18.15;;;21.50;66.60;;;;;;5036229;28;20032;-92
2021/06/12 07:19:52;;;;;;;32.00;20.58;;;21.80;66.20;;;;;;5055757;28;20056;-87
2021/06/12 07:22:17;;;;;;;26.63;20.10;;;22.00;65.80;;;;;;5070998;28;20130;-90
2021/06/12 07:24:43;;;;;;;27.58;19.30;;;22.30;65.70;;;;;;5060114;28;20028;-91
2021/06/12 07:27:10;;;;;;;29.95;20.08;;;22.50;65.40;;;;;;5037595;28;20059;-91
2021/06/12 07:29:36;;;;;;;28.58;19.88;;;22.80;65.00;;;;;;5067828;28;20151;-89
2021/06/12 07:32:02;;;;;;;27.60;20.27;;;23.10;65.20;;;;;;5069900;28;20041;-89
2021/06/12 07:34:28;;;;;;;25.90;19.33;;;23.30;64.40;;;;;;5036921;28;20550;-91
2021/06/12 07:36:54;;;;;;;23.67;18.45;;;23.50;64.00;;;;;;5051885;28;20034;-92
2021/06/12 07:39:20;;;;;;;27.45;20.05;;;23.60;63.60;;;;;;5054481;28;20029;-90
2021/06/12 07:41:46;;;;;;;24.65;19.30;;;23.80;63.30;;;;;;5052958;28;20033;-90
2021/06/12 07:44:12;;;;;;;28.25;20.08;;;23.80;62.70;;;;;;5054871;28;20032;-91
2021/06/12 07:46:38;;;;;;;30.48;21.55;;;23.80;62.20;;;;;;5035143;28;20064;-93
2021/06/12 07:49:05;;;;;;;24.83;20.38;;;23.80;62.10;;;;;;5033989;28;20061;-92
2021/06/12 07:51:33;;;;;;;23.92;20.40;;;23.90;62.00;;;;;;5034918;28;20029;-90
2021/06/12 07:54:00;;;;;;;26.80;21.80;;;24.00;61.80;;;;;;5033248;28;20405;-90
2021/06/12 07:56:27;;;;;;;29.80;21.17;;;24.10;61.80;;;;;;5032991;28;20044;-90
2021/06/12 07:58:53;;;;;;;26.05;20.85;;;24.30;61.60;;;;;;5032816;28;20029;-90
2021/06/12 08:01:19;;;;;;;24.73;21.15;;;24.60;61.40;;;;;;5033787;28;20040;-90
2021/06/12 08:03:45;;;;;;;29.60;21.95;;;24.80;61.10;;;;;;5049805;28;20032;-89
2021/06/12 08:06:11;;;;;;;27.85;21.05;;;25.00;61.10;;;;;;5032776;28;20044;-90
2021/06/12 08:08:37;;;;;;;24.58;20.92;;;25.20;60.70;;;;;;5033297;28;20043;-90
2021/06/12 08:11:03;;;;;;;30.30;20.35;;;25.60;60.20;;;;;;5032992;28;20036;-90
2021/06/12 08:13:29;;;;;;;25.35;18.52;;;26.00;59.40;;;;;;5043118;28;20040;-90
2021/06/12 08:15:55;;;;;;;21.58;18.42;;;26.40;58.50;;;;;;5033594;28;20021;-93
2021/06/12 08:18:21;;;;;;;25.08;18.25;;;26.80;57.60;;;;;;5034193;28;20037;-94
2021/06/12 08:20:48;;;;;;;20.75;17.08;;;27.20;56.70;;;;;;5034302;28;20036;-93
2021/06/12 08:23:15;;;;;;;21.08;16.85;;;27.30;55.80;;;;;;5014262;28;20029;-92
2021/06/12 08:25:41;;;;;;;19.52;15.95;;;27.10;55.40;;;;;;5049420;28;20087;-88
2021/06/12 08:28:07;;;;;;;17.17;15.48;;;26.70;55.50;;;;;;5033447;28;20028;-90
2021/06/12 08:30:35;;;;;;;21.23;17.40;;;26.30;55.70;;;;;;5029488;28;20500;-92
2021/06/12 08:33:05;;;;;;;22.98;15.73;;;26.30;56.00;;;;;;5047386;28;20427;-89
2021/06/12 08:35:32;;;;;;;21.02;16.50;;;26.70;55.20;;;;;;5049108;28;20369;-91
2021/06/12 08:37:58;;;;;;;19.50;16.33;;;27.00;54.40;;;;;;5031240;28;20059;-90
2021/06/12 08:40:25;;;;;;;20.58;15.75;;;26.90;54.00;;;;;;5039296;28;20021;-89
2021/06/12 08:42:53;;;;;;;19.15;16.42;;;26.50;54.30;;;;;;5038109;28;20483;-94
2021/06/12 08:45:55;;;;;;;25.08;17.20;;;26.30;54.60;;;;;;5023613;28;20097;-88
2021/06/12 08:48:23;;;;;;;21.35;14.65;;;26.10;54.90;;;;;;5050539;28;20475;-90
2021/06/12 08:50:49;;;;;;;16.35;13.65;;;26.20;55.20;;;;;;5035778;28;20536;-93
2021/06/12 08:53:16;;;;;;;19.90;14.63;;;26.70;54.20;;;;;;5032095;28;20041;-91
2021/06/12 08:55:44;;;;;;;22.25;15.43;;;26.80;53.40;;;;;;5046095;28;20033;-93
2021/06/12 08:58:11;;;;;;;20.35;15.57;;;26.60;53.50;;;;;;5053524;28;20056;-91
2021/06/12 09:00:37;;;;;;;20.15;14.23;;;26.60;53.90;;;;;;5053035;28;20365;-90
2021/06/12 09:03:03;;;;;;;24.15;16.17;;;27.00;53.40;;;;;;5049812;28;20052;-90
2021/06/12 09:05:58;;;;;;;21.65;15.82;;;27.30;52.70;;;;;;5051152;28;20086;-86
2021/06/12 09:08:29;;;;;;;28.27;16.30;;;27.00;52.50;;;;;;5052028;28;20587;-89
2021/06/12 09:10:58;;;;;;;27.70;15.38;;;26.50;53.10;;;;;;5033738;28;20031;-89
2021/06/12 09:13:48;;;;;;;28.35;15.43;;;26.20;53.90;;;;;;5050717;28;20033;-88
2021/06/12 09:16:27;;;;;;;22.83;15.75;;;25.90;54.30;;;;;;5024113;28;20033;-86
2021/06/12 09:18:58;;;;;;;20.75;15.07;;;25.70;54.80;;;;;;5036767;28;20064;-87
2021/06/12 09:21:38;;;;;;;18.08;15.43;;;25.80;55.10;;;;;;5049646;28;20754;-88
2021/06/12 09:24:07;;;;;;;22.63;14.65;;;26.10;54.90;;;;;;5033309;28;20033;-87
2021/06/12 09:27:02;;;;;;;25.95;15.27;;;26.30;54.40;;;;;;5034510;28;20048;-87
2021/06/12 09:29:42;;;;;;;20.48;14.60;;;26.40;53.90;;;;;;5048400;28;20037;-88
2021/06/12 09:32:13;;;;;;;26.35;13.90;;;26.20;53.90;;;;;;5050207;28;20083;-90
2021/06/12 09:34:40;;;;;;;18.67;13.02;;;26.20;54.20;;;;;;5047748;28;20045;-87
2021/06/12 09:37:17;;;;;;;19.10;13.02;;;26.10;54.10;;;;;;5047841;28;20043;-89
2021/06/12 09:39:56;;;;;;;19.95;12.60;;;26.10;54.10;;;;;;5042611;28;20052;-88
2021/06/12 09:42:54;;;;;;;18.55;12.52;;;26.00;54.40;;;;;;5033679;28;20546;-89
2021/06/12 09:45:29;;;;;;;16.80;12.57;;;26.00;54.40;;;;;;5040789;28;20037;-88
2021/06/12 09:48:16;;;;;;;21.45;12.70;;;26.00;54.50;;;;;;5013841;28;20060;-87
2021/06/12 09:50:44;;;;;;;21.38;11.30;;;26.00;54.20;;;;;;5050209;28;20028;-90
2021/06/12 09:53:17;;;;;;;22.38;12.65;;;25.90;54.30;;;;;;5051865;28;20381;-90
2021/06/12 09:55:44;;;;;;;19.75;13.00;;;25.90;54.60;;;;;;5043289;28;20032;-88
2021/06/12 09:58:13;;;;;;;20.90;12.07;;;26.00;54.80;;;;;;5055231;28;20033;-88
2021/06/12 10:00:42;;;;;;;19.27;11.27;;;26.10;54.80;;;;;;5049052;28;20038;-92
2021/06/12 10:03:31;;;;;;;25.67;10.82;;;26.30;54.70;;;;;;5051679;28;20037;-88
2021/06/12 10:06:27;;;;;;;26.40;11.48;;;26.50;54.50;;;;;;5053999;28;20044;-89
2021/06/12 10:08:54;;;;;;;18.20;11.80;;;26.60;54.10;;;;;;5049917;28;20313;-88
2021/06/12 10:11:24;;;;;;;21.77;11.45;;;26.50;54.00;;;;;;5051329;28;20408;-89
2021/06/12 10:13:51;;;;;;;20.95;12.00;;;26.40;54.00;;;;;;5043690;28;20041;-87
2021/06/12 10:16:18;;;;;;;31.35;11.85;;;26.20;54.20;;;;;;5034479;28;20027;-92
2021/06/12 10:18:46;;;;;;;14.85;10.93;;;26.10;54.20;;;;;;5038078;28;20064;-91
2021/06/12 10:21:14;;;;;;;19.25;10.60;;;26.10;54.30;;;;;;5044736;28;20033;-89
2021/06/12 10:23:44;;;;;;;22.35;10.25;;;26.00;54.40;;;;;;5042987;28;20032;-93
2021/06/12 10:26:26;;;;;;;17.73;9.65;;;26.00;54.60;;;;;;5068328;28;20029;-93
2021/06/12 10:28:52;;;;;;;16.42;10.02;;;25.90;54.50;;;;;;5064756;28;20033;-92
2021/06/12 10:31:23;;;;;;;17.02;9.85;;;25.90;54.70;;;;;;5034827;28;20032;-88
2021/06/12 10:33:52;;;;;;;20.17;10.40;;;26.10;54.80;;;;;;5048854;28;20067;-89
2021/06/12 10:36:21;;;;;;;19.42;10.70;;;26.10;54.60;;;;;;5051584;28;20025;-90
2021/06/12 10:38:48;;;;;;;18.65;10.23;;;26.20;54.50;;;;;;5061226;28;20096;-89
2021/06/12 10:41:29;;;;;;;21.73;9.50;;;26.40;54.50;;;;;;5068787;28;20021;-87
2021/06/12 10:44:02;;;;;;;14.75;8.20;;;26.50;54.20;;;;;;5071761;28;20028;-85
2021/06/12 10:47:04;;;;;;;19.67;9.75;;;26.70;53.90;;;;;;5076533;28;20039;-86
2021/06/12 10:49:33;;;;;;;15.80;9.85;;;26.80;53.50;;;;;;5012852;28;20306;-75
2021/06/12 10:52:06;;;;;;;16.92;9.43;;;26.80;53.40;;;;;;5006432;28;20244;-75
2021/06/12 10:54:35;;;;;;;19.80;11.18;;;26.70;53.50;;;;;;5007765;28;20033;-75
2021/06/12 10:57:18;;;;;;;22.13;10.52;;;26.70;53.60;;;;;;5002103;28;20030;-74
2021/06/12 10:59:46;;;;;;;15.88;10.07;;;26.70;53.30;;;;;;5008495;28;20527;-75
2021/06/12 11:02:43;;;;;;;18.45;9.82;;;26.80;53.40;;;;;;5013835;28;20451;-75
2021/06/12 11:05:29;;;;;;;17.88;9.98;;;26.90;53.10;;;;;;5003805;28;20679;-75
2021/06/12 11:08:16;;;;;;;21.50;11.10;;;27.00;53.00;;;;;;5009474;28;20041;-74
2021/06/12 11:10:42;;;;;;;20.42;12.02;;;26.80;53.00;;;;;;5006716;28;20029;-75
2021/06/12 11:13:22;;;;;;;19.15;10.10;;;26.70;53.30;;;;;;5017387;28;20607;-75
2021/06/12 11:15:48;;;;;;;20.42;10.82;;;26.60;53.10;;;;;;5023683;28;20109;-75
2021/06/12 11:18:25;;;;;;;20.38;10.00;;;26.60;53.40;;;;;;5007128;28;20480;-74
2021/06/12 11:21:00;;;;;;;14.18;9.38;;;26.80;53.40;;;;;;5020498;28;20560;-75
2021/06/12 11:23:53;;;;;;;22.52;9.43;;;27.00;53.30;;;;;;4999752;28;20057;-75
2021/06/12 11:26:20;;;;;;;19.73;10.20;;;27.30;53.00;;;;;;5020823;28;20084;-75
2021/06/12 11:28:48;;;;;;;18.85;10.63;;;27.40;52.70;;;;;;5006387;28;20385;-74
2021/06/12 11:31:29;;;;;;;16.45;8.95;;;27.60;52.40;;;;;;5004572;28;20033;-75
2021/06/12 11:34:23;;;;;;;18.67;8.73;;;27.70;52.00;;;;;;4979407;28;20129;-75
2021/06/12 11:37:11;;;;;;;20.20;9.00;;;27.70;52.10;;;;;;4974259;28;20472;-74
2021/06/12 11:39:53;;;;;;;17.13;9.85;;;27.80;52.20;;;;;;4999445;28;20037;-75
2021/06/12 11:42:20;;;;;;;21.65;9.65;;;27.80;51.90;;;;;;5004623;28;20029;-75
2021/06/12 11:44:46;;;;;;;16.23;8.05;;;27.90;51.80;;;;;;4998886;28;20120;-74
2021/06/12 11:47:23;;;;;;;17.77;9.30;;;28.00;51.60;;;;;;5006563;28;20496;-74
2021/06/12 11:49:50;;;;;;;12.98;8.38;;;28.10;51.50;;;;;;5007007;28;20037;-73
2021/06/12 11:52:16;;;;;;;16.15;8.48;;;28.10;51.30;;;;;;5006255;28;20507;-74
2021/06/12 11:54:43;;;;;;;18.98;9.02;;;27.90;50.90;;;;;;5006231;28;20403;-75
2021/06/12 11:57:09;;;;;;;14.05;8.50;;;27.80;51.10;;;;;;4991677;28;20037;-74
2021/06/12 11:59:35;;;;;;;12.98;8.63;;;27.60;51.10;;;;;;5005808;28;20060;-74
2021/06/12 12:02:07;;;;;;;14.95;8.52;;;27.60;51.00;;;;;;5006807;28;20025;-75
2021/06/12 12:04:41;;;;;;;14.27;8.10;;;27.70;50.80;;;;;;5005669;28;20022;-75
2021/06/12 12:07:16;;;;;;;14.85;9.32;;;27.80;50.70;;;;;;5006663;28;20528;-76
2021/06/12 12:09:47;;;;;;;16.58;8.18;;;27.80;50.40;;;;;;5005886;28;20487;-76
2021/06/12 12:12:20;;;;;;;13.63;7.10;;;27.90;50.10;;;;;;5021949;28;20041;-75
2021/06/12 12:14:46;;;;;;;;;;;28.00;49.90;;;;;;5000560;28;20034;-74
2021/06/12 12:17:27;;;;;;;17.35;9.38;;;28.00;50.30;;;;;;5006052;28;20125;-74
2021/06/12 12:20:03;;;;;;;14.88;8.10;;;28.00;50.20;;;;;;5017646;28;20068;-74
2021/06/12 12:22:41;;;;;;;15.32;8.75;;;28.10;50.40;;;;;;5021045;28;20092;-74
2021/06/12 12:25:10;;;;;;;14.68;8.73;;;28.10;50.10;;;;;;5004720;28;20488;-73
2021/06/12 12:27:36;;;;;;;13.90;8.32;;;28.10;50.10;;;;;;5005855;28;20041;-73
2021/06/12 12:30:04;;;;;;;15.48;8.32;;;28.20;50.00;;;;;;4988708;28;20327;-74
2021/06/12 12:32:31;;;;;;;14.25;8.27;;;28.20;49.80;;;;;;5004091;28;20030;-73
2021/06/12 12:35:12;;;;;;;12.45;7.90;;;28.20;49.60;;;;;;4999217;28;20443;-74
2021/06/12 12:37:38;;;;;;;14.15;7.72;;;28.30;49.40;;;;;;5004431;28;20042;-75
2021/06/12 12:40:18;;;;;;;12.45;7.82;;;28.30;49.40;;;;;;4988387;28;20443;-74
2021/06/12 12:42:45;;;;;;;11.98;7.55;;;28.40;49.40;;;;;;5011267;28;20304;-74
2021/06/12 12:45:12;;;;;;;13.93;8.05;;;28.30;49.40;;;;;;5005947;28;20116;-74
2021/06/12 12:47:38;;;;;;;15.48;8.40;;;28.30;49.40;;;;;;5006938;28;20057;-75